Ardenvoir, Washington
Current Conditions -  °F | °C
As of 5:55 AM on Monday 22 Dec 2014 (Local Time) from KEAT Reporting Station
Clear Clear  
Wind Chill: 37°   Ceiling: Unl
Heat Index: 42°   Visibility: 10mi
Dew Point: 33°   Wind: 9mph
Humidity: 70%   Direction: 310°NW
Pressure: 30.12"   Gusts: NA
Location:  47.74°N, 120.37°W
Report Text: KEAT 221355Z AUTO 31008KT 10SM CLR 06/01 A3012 RMK AO2 SLP205 T00560006
Loading
Personal Weather Stations






























Interactive Weather Map New forecast layout! Learn more

10-Day Weather Forecast

Advertisements
Track Severe Weather on mobile